Aviation Digital Data Service (ADDS)

Output produced by METARs form (2213 UTC 01 February 2023)
found at http://www.aviationweather.gov/metar/data/
 
KCLT 012152Z 07008KT 10SM OVC010 07/04 A3022 RMK CIG 009V014 SLP230 T00720044
KCLT 012136Z 06009G19KT 10SM BKN010 OVC018 07/04 A3021 RMK CIG 007V014 T00670044
KCLT 012155Z 0122/0224 07009KT P6SM BKN010 OVC014 
     TEMPO 0122/0201 BKN009 OVC014 
     FM020100 08005KT 5SM BR OVC008 
     FM020700 05003KT 4SM -RA BR OVC004 
     FM021900 16003KT 3SM -RA BR OVC006